createdAt,value
2023-04-09T00:02:10.595Z,102144.92
2023-04-09T00:04:39.102Z,102142.67
2023-04-09T00:07:07.593Z,102140.59
2023-04-09T00:09:36.088Z,102140.25
2023-04-09T00:12:04.626Z,102141.33
2023-04-09T00:14:33.574Z,102146.23
2023-04-09T00:17:01.680Z,102147.33
2023-04-09T00:19:29.843Z,102148.36
2023-04-09T00:21:58.250Z,102152.55
2023-04-09T00:24:26.451Z,102154.13
2023-04-09T00:26:54.778Z,102157.28
2023-04-09T00:29:23.186Z,102151.39
2023-04-09T00:31:51.545Z,102155.22
2023-04-09T00:34:19.815Z,102151.21
2023-04-09T00:36:48.304Z,102151.39
2023-04-09T00:39:16.649Z,102147.56
2023-04-09T00:41:46.102Z,102148.46
2023-04-09T00:44:14.138Z,102147.64
2023-04-09T00:46:44.250Z,102153.59
2023-04-09T00:49:12.373Z,102154.30
2023-04-09T00:51:41.191Z,102153.51
2023-04-09T00:54:09.628Z,102151.93
2023-04-09T00:56:37.780Z,102149.32
2023-04-09T00:59:05.937Z,102149.66
2023-04-09T01:01:34.666Z,102146.54
2023-04-09T01:04:03.181Z,102146.19
2023-04-09T01:06:39.236Z,102145.17
2023-04-09T01:09:07.498Z,102145.04
2023-04-09T01:11:36.643Z,102141.52
2023-04-09T01:14:04.895Z,102140.88
2023-04-09T01:16:35.377Z,102138.34
2023-04-09T01:19:07.321Z,102139.33
2023-04-09T01:21:35.572Z,102142.66
2023-04-09T01:24:03.863Z,102142.14
2023-04-09T01:27:03.332Z,102142.11
2023-04-09T01:29:45.596Z,102137.41
2023-04-09T01:32:14.136Z,102137.59
2023-04-09T01:34:46.686Z,102137.23
2023-04-09T01:37:15.579Z,102135.65
2023-04-09T01:39:43.747Z,102134.11
2023-04-09T01:42:12.435Z,102136.95
2023-04-09T01:44:40.922Z,102133.30
2023-04-09T01:47:09.342Z,102130.79
2023-04-09T01:49:37.854Z,102130.10
2023-04-09T01:52:06.377Z,102134.27
2023-04-09T01:54:34.547Z,102129.58
2023-04-09T01:57:02.604Z,102126.81
2023-04-09T01:59:34.877Z,102127.31
2023-04-09T02:02:06.954Z,102129.27
2023-04-09T02:04:39.599Z,102130.55
2023-04-09T02:07:07.662Z,102126.25
2023-04-09T02:09:37.546Z,102121.91
2023-04-09T02:12:06.366Z,102120.52
2023-04-09T02:14:34.845Z,102120.02
2023-04-09T02:17:03.418Z,102121.41
2023-04-09T02:19:41.461Z,102116.00
2023-04-09T02:22:16.628Z,102114.07
2023-04-09T02:24:46.178Z,102115.10
2023-04-09T02:27:14.415Z,102114.95
2023-04-09T02:29:43.356Z,102113.59
2023-04-09T02:32:11.488Z,102112.20
2023-04-09T02:34:43.981Z,102112.73
2023-04-09T02:37:12.434Z,102113.30
2023-04-09T02:39:40.640Z,102109.29
2023-04-09T02:42:09.630Z,102108.98
2023-04-09T02:44:37.893Z,102111.80
2023-04-09T02:47:09.523Z,102107.77
2023-04-09T02:49:39.324Z,102111.71
2023-04-09T02:52:07.540Z,102110.27
2023-04-09T02:54:35.904Z,102111.65
2023-04-09T02:57:04.610Z,102112.48
2023-04-09T02:59:34.408Z,102110.06
2023-04-09T03:02:02.741Z,102105.27
2023-04-09T03:04:30.972Z,102108.09
2023-04-09T03:06:59.412Z,102111.23
2023-04-09T03:09:27.480Z,102112.10
2023-04-09T03:11:57.436Z,102115.79
2023-04-09T03:14:25.724Z,102120.04
2023-04-09T03:16:54.076Z,102120.59
2023-04-09T03:19:22.114Z,102126.33
2023-04-09T03:21:51.463Z,102126.63
2023-04-09T03:24:21.784Z,102126.27
2023-04-09T03:26:50.346Z,102130.79
2023-04-09T03:29:19.987Z,102128.72
2023-04-09T03:31:48.339Z,102128.39
2023-04-09T03:34:16.473Z,102128.37
2023-04-09T03:36:46.089Z,102129.43
2023-04-09T03:39:23.621Z,102131.89
2023-04-09T03:41:53.270Z,102133.29
2023-04-09T03:44:21.778Z,102127.50
2023-04-09T03:47:02.204Z,102130.23
2023-04-09T03:49:30.764Z,102130.40
2023-04-09T03:52:04.665Z,102129.20
2023-04-09T03:54:39.172Z,102127.10
2023-04-09T03:57:12.243Z,102125.33
2023-04-09T03:59:46.448Z,102125.84
2023-04-09T04:02:16.517Z,102121.98
2023-04-09T04:04:47.831Z,102120.06
2023-04-09T04:07:17.377Z,102119.54
2023-04-09T04:09:53.320Z,102115.70
2023-04-09T04:12:26.634Z,102113.77
2023-04-09T04:15:12.164Z,102115.31
2023-04-09T04:17:53.648Z,102111.49
2023-04-09T04:20:34.797Z,102113.42
2023-04-09T04:23:23.894Z,102112.04
2023-04-09T04:26:07.223Z,102115.16
2023-04-09T04:28:37.105Z,102118.99
2023-04-09T04:31:11.509Z,102122.82
2023-04-09T04:33:40.707Z,102128.37
2023-04-09T04:36:12.792Z,102132.02
2023-04-09T04:38:46.601Z,102136.70
2023-04-09T04:41:45.705Z,102140.35
2023-04-09T04:44:17.089Z,102144.00
2023-04-09T04:46:47.170Z,102144.14
2023-04-09T04:49:15.526Z,102147.77
2023-04-09T04:51:49.369Z,102151.05
2023-04-09T04:54:17.593Z,102153.64
2023-04-09T04:56:54.454Z,102155.86
2023-04-09T04:59:51.597Z,102160.52
2023-04-09T05:02:20.691Z,102164.50
2023-04-09T05:05:01.721Z,102164.14
2023-04-09T05:07:37.627Z,102163.09
2023-04-09T05:10:06.828Z,102160.95
2023-04-09T05:12:43.752Z,102162.13
2023-04-09T05:15:13.152Z,102163.70
2023-04-09T05:17:43.860Z,102160.75
2023-04-09T05:20:12.376Z,102161.26
2023-04-09T05:22:49.460Z,102158.77
2023-04-09T05:25:17.964Z,102157.55
2023-04-09T05:27:48.140Z,102154.05
2023-04-09T05:30:16.610Z,102154.77
2023-04-09T05:32:45.027Z,102160.18
2023-04-09T05:35:13.802Z,102165.73
2023-04-09T05:37:44.168Z,102169.20
2023-04-09T05:40:12.850Z,102169.92
2023-04-09T05:42:41.807Z,102172.98
2023-04-09T05:45:18.366Z,102172.09
2023-04-09T05:47:51.841Z,102172.23
2023-04-09T05:50:22.888Z,102174.84
2023-04-09T05:53:00.819Z,102183.86
2023-04-09T05:55:37.638Z,102184.17
2023-04-09T05:58:05.765Z,102180.17
2023-04-09T06:00:34.673Z,102178.80
2023-04-09T06:03:04.596Z,102183.31
2023-04-09T06:05:32.758Z,102183.48
2023-04-09T06:08:02.018Z,102185.34
2023-04-09T06:10:32.414Z,102186.89
2023-04-09T06:13:00.932Z,102185.42
2023-04-09T06:15:37.578Z,102189.56
2023-04-09T06:18:06.990Z,102188.95
2023-04-09T06:20:35.727Z,102186.95
2023-04-09T06:23:06.372Z,102188.29
2023-04-09T06:25:35.770Z,102190.52
2023-04-09T06:28:04.431Z,102193.33
2023-04-09T06:30:37.565Z,102198.34
2023-04-09T06:33:06.243Z,102198.52
2023-04-09T06:35:34.427Z,102198.88
2023-04-09T06:38:04.797Z,102201.58
2023-04-09T06:40:33.353Z,102201.32
2023-04-09T06:43:01.656Z,102201.58
2023-04-09T06:45:32.766Z,102201.63
2023-04-09T06:48:01.046Z,102204.65
2023-04-09T06:50:31.413Z,102208.95
2023-04-09T06:52:59.625Z,102210.79
2023-04-09T06:55:27.995Z,102208.08
2023-04-09T06:57:57.098Z,102204.69
2023-04-09T07:00:25.157Z,102205.11
2023-04-09T07:03:13.167Z,102199.18
2023-04-09T07:05:45.149Z,102198.86
2023-04-09T07:08:13.204Z,102198.21
2023-04-09T07:10:42.318Z,102199.23
2023-04-09T07:13:12.705Z,102200.10
2023-04-09T07:15:42.525Z,102200.11
2023-04-09T07:18:11.762Z,102201.82
2023-04-09T07:20:39.925Z,102203.21
2023-04-09T07:23:08.092Z,102206.31
2023-04-09T07:25:36.606Z,102206.54
2023-04-09T07:28:04.728Z,102204.91
2023-04-09T07:30:33.106Z,102206.92
2023-04-09T07:33:01.628Z,102206.91
2023-04-09T07:35:29.785Z,102211.43
2023-04-09T07:37:59.142Z,102213.80
2023-04-09T07:40:27.318Z,102212.27
2023-04-09T07:42:56.183Z,102209.33
2023-04-09T07:45:24.259Z,102211.65
2023-04-09T07:47:55.658Z,102215.99
2023-04-09T07:50:24.049Z,102219.30
2023-04-09T07:52:52.195Z,102215.00
2023-04-09T07:55:20.786Z,102211.63
2023-04-09T07:57:51.777Z,102209.06
2023-04-09T08:00:23.364Z,102212.29
2023-04-09T08:02:57.786Z,102211.20
2023-04-09T08:05:26.557Z,102207.66
2023-04-09T08:07:57.436Z,102206.85
2023-04-09T08:10:25.521Z,102206.95
2023-04-09T08:12:53.703Z,102203.02
2023-04-09T08:15:29.370Z,102205.13
2023-04-09T08:17:58.368Z,102208.42
2023-04-09T08:20:26.614Z,102205.60
2023-04-09T08:22:55.799Z,102204.77
2023-04-09T08:25:24.069Z,102204.80
2023-04-09T08:27:52.410Z,102204.06
2023-04-09T08:30:21.307Z,102200.73
2023-04-09T08:32:50.228Z,102202.79
2023-04-09T08:35:18.586Z,102199.61
2023-04-09T08:37:47.957Z,102200.44
2023-04-09T08:40:16.549Z,102198.03
2023-04-09T08:42:46.227Z,102198.70
2023-04-09T08:45:14.386Z,102195.47
2023-04-09T08:47:42.756Z,102195.86
2023-04-09T08:50:10.934Z,102191.75
2023-04-09T08:52:39.993Z,102193.50
2023-04-09T08:55:08.610Z,102192.40
2023-04-09T08:57:40.186Z,102186.91
2023-04-09T09:00:10.481Z,102189.67
2023-04-09T09:02:40.135Z,102191.52
2023-04-09T09:05:08.620Z,102193.20
2023-04-09T09:07:53.143Z,102190.75
2023-04-09T09:10:21.809Z,102191.03
2023-04-09T09:12:49.931Z,102188.52
2023-04-09T09:15:27.732Z,102183.10
2023-04-09T09:17:59.244Z,102184.84
2023-04-09T09:20:27.824Z,102184.61
2023-04-09T09:22:57.172Z,102185.02
2023-04-09T09:25:26.404Z,102178.77
2023-04-09T09:27:55.135Z,102182.58
2023-04-09T09:30:24.243Z,102179.75
2023-04-09T09:32:53.479Z,102181.71
2023-04-09T09:35:22.498Z,102177.35
2023-04-09T09:38:01.054Z,102176.73
2023-04-09T09:40:30.064Z,102175.14
2023-04-09T09:42:59.303Z,102173.69
2023-04-09T09:45:27.735Z,102172.30
2023-04-09T09:47:57.162Z,102177.48
2023-04-09T09:50:25.787Z,102178.18
2023-04-09T09:52:55.095Z,102175.79
2023-04-09T09:55:23.172Z,102177.45
2023-04-09T09:57:51.715Z,102176.42
2023-04-09T10:00:25.475Z,102177.17
2023-04-09T10:02:59.655Z,102178.73
2023-04-09T10:05:27.931Z,102175.75
2023-04-09T10:07:58.299Z,102175.40
2023-04-09T10:10:26.490Z,102175.63
2023-04-09T10:12:54.841Z,102172.84
2023-04-09T10:15:24.033Z,102175.50
2023-04-09T10:17:54.477Z,102170.11
2023-04-09T10:20:56.301Z,102169.42
2023-04-09T10:23:36.287Z,102171.14
2023-04-09T10:26:04.925Z,102164.35
2023-04-09T10:28:33.983Z,102162.38
2023-04-09T10:31:06.952Z,102159.09
2023-04-09T10:33:55.047Z,102162.14
2023-04-09T10:36:28.004Z,102162.12
2023-04-09T10:39:11.173Z,102159.09
2023-04-09T10:41:39.956Z,102161.77
2023-04-09T10:44:24.758Z,102157.54
2023-04-09T10:46:55.180Z,102155.25
2023-04-09T10:49:24.087Z,102155.55
2023-04-09T10:52:11.886Z,102150.30
2023-04-09T10:54:46.593Z,102152.69
2023-04-09T10:57:19.654Z,102155.58
2023-04-09T10:59:52.703Z,102161.02
2023-04-09T11:02:24.004Z,102157.98
2023-04-09T11:05:04.095Z,102159.62
2023-04-09T11:07:33.379Z,102161.15
2023-04-09T11:10:02.562Z,102158.36
2023-04-09T11:12:36.191Z,102159.50
2023-04-09T11:15:04.729Z,102157.70
2023-04-09T11:17:37.873Z,102151.73
2023-04-09T11:20:10.268Z,102152.21
2023-04-09T11:22:39.450Z,102151.66
2023-04-09T11:25:08.289Z,102152.86
2023-04-09T11:27:38.053Z,102149.33
2023-04-09T11:30:14.094Z,102144.20
2023-04-09T11:32:52.806Z,102142.59
2023-04-09T11:35:22.124Z,102140.22
2023-04-09T11:37:55.592Z,102144.02
2023-04-09T11:40:29.318Z,102147.52
2023-04-09T11:42:59.322Z,102150.49
2023-04-09T11:45:29.331Z,102150.73
2023-04-09T11:47:58.569Z,102149.28
2023-04-09T11:50:29.618Z,102145.93
2023-04-09T11:52:58.303Z,102143.23
2023-04-09T11:55:31.215Z,102145.00
2023-04-09T11:58:01.405Z,102145.06
2023-04-09T12:00:29.840Z,102144.88
2023-04-09T12:02:59.937Z,102137.54
2023-04-09T12:05:51.221Z,102130.96
2023-04-09T12:08:23.189Z,102132.23
2023-04-09T12:10:58.023Z,102129.86
2023-04-09T12:13:34.814Z,102130.48
2023-04-09T12:16:10.064Z,102128.89
2023-04-09T12:19:07.303Z,102132.63
2023-04-09T12:21:58.789Z,102128.34
2023-04-09T12:24:28.274Z,102125.37
2023-04-09T12:26:57.565Z,102128.38
2023-04-09T12:29:26.907Z,102125.95
2023-04-09T12:31:56.602Z,102125.80
2023-04-09T12:34:27.468Z,102129.34
2023-04-09T12:37:02.870Z,102123.77
2023-04-09T12:39:32.632Z,102121.91
2023-04-09T12:42:04.429Z,102120.46
2023-04-09T12:44:37.391Z,102121.16
2023-04-09T12:47:05.706Z,102119.31
2023-04-09T12:49:41.055Z,102116.55
2023-04-09T12:52:11.160Z,102111.66
2023-04-09T12:54:43.003Z,102113.27
2023-04-09T12:57:13.134Z,102114.29
2023-04-09T12:59:45.237Z,102111.45
2023-04-09T13:02:14.279Z,102107.58
2023-04-09T13:04:43.133Z,102111.46
2023-04-09T13:07:13.087Z,102110.23
2023-04-09T13:09:43.814Z,102107.75
2023-04-09T13:12:13.256Z,102105.39
2023-04-09T13:14:46.715Z,102103.77
2023-04-09T13:17:15.668Z,102101.25
2023-04-09T13:19:44.243Z,102105.80
2023-04-09T13:22:12.707Z,102101.74
2023-04-09T13:24:43.395Z,102101.30
2023-04-09T13:27:13.216Z,102098.92
2023-04-09T13:29:45.807Z,102097.98
2023-04-09T13:32:14.478Z,102092.46
2023-04-09T13:34:51.412Z,102086.23
2023-04-09T13:37:20.154Z,102087.23
2023-04-09T13:39:49.622Z,102086.55
2023-04-09T13:42:19.273Z,102085.09
2023-04-09T13:44:47.430Z,102079.08
2023-04-09T13:47:16.463Z,102079.00
2023-04-09T13:49:44.598Z,102079.84
2023-04-09T13:52:12.988Z,102081.53
2023-04-09T13:54:42.178Z,102081.46
2023-04-09T13:57:10.775Z,102082.45
2023-04-09T13:59:38.846Z,102080.62
2023-04-09T14:02:09.687Z,102075.21
2023-04-09T14:04:39.223Z,102071.73
2023-04-09T14:07:08.572Z,102071.56
2023-04-09T14:09:39.922Z,102067.70
2023-04-09T14:12:08.081Z,102067.02
2023-04-09T14:14:38.109Z,102064.95
2023-04-09T14:17:07.552Z,102061.66
2023-04-09T14:19:36.519Z,102061.16
2023-04-09T14:22:15.628Z,102058.15
2023-04-09T14:24:43.764Z,102058.40
2023-04-09T14:27:12.278Z,102056.27
2023-04-09T14:29:46.305Z,102051.52
2023-04-09T14:32:23.191Z,102053.25
2023-04-09T14:35:02.251Z,102055.77
2023-04-09T14:37:32.359Z,102052.27
2023-04-09T14:40:12.727Z,102050.34
2023-04-09T14:42:43.728Z,102048.32
2023-04-09T14:45:12.877Z,102047.35
2023-04-09T14:47:45.754Z,102048.11
2023-04-09T14:50:25.790Z,102040.70
2023-04-09T14:52:56.742Z,102042.05
2023-04-09T14:55:44.822Z,102039.66
2023-04-09T14:58:19.622Z,102038.18
2023-04-09T15:00:53.683Z,102040.61
2023-04-09T15:03:23.009Z,102041.84
2023-04-09T15:05:51.323Z,102044.09
2023-04-09T15:08:26.526Z,102042.33
2023-04-09T15:10:59.165Z,102042.22
2023-04-09T15:13:34.044Z,102042.87
2023-04-09T15:16:06.140Z,102036.70
2023-04-09T15:18:37.717Z,102037.77
2023-04-09T15:21:07.260Z,102040.57
2023-04-09T15:23:35.960Z,102041.98
2023-04-09T15:26:09.925Z,102041.64
2023-04-09T15:28:39.149Z,102043.20
2023-04-09T15:31:07.513Z,102047.61
2023-04-09T15:33:55.450Z,102048.86
2023-04-09T15:36:30.202Z,102052.04
2023-04-09T15:38:58.704Z,102052.41
2023-04-09T15:41:27.070Z,102056.86
2023-04-09T15:44:12.551Z,102054.37
2023-04-09T15:46:56.981Z,102057.98
2023-04-09T15:49:27.512Z,102056.84
2023-04-09T15:51:58.839Z,102054.21
2023-04-09T15:54:27.335Z,102056.94
2023-04-09T15:57:05.088Z,102054.83
2023-04-09T15:59:33.691Z,102056.67
2023-04-09T16:02:03.332Z,102054.15
2023-04-09T16:04:32.206Z,102054.05
2023-04-09T16:07:05.410Z,102053.21
2023-04-09T16:09:51.556Z,102053.98
2023-04-09T16:12:19.754Z,102047.48
2023-04-09T16:14:50.772Z,102045.24
2023-04-09T16:17:19.046Z,102045.87
2023-04-09T16:19:50.478Z,102044.00
2023-04-09T16:22:20.119Z,102044.38
2023-04-09T16:24:48.897Z,102043.74
2023-04-09T16:27:22.811Z,102042.89
2023-04-09T16:29:57.591Z,102045.55
2023-04-09T16:32:31.724Z,102046.62
2023-04-09T16:35:04.609Z,102045.70
2023-04-09T16:37:36.456Z,102042.33
2023-04-09T16:40:04.708Z,102041.94
2023-04-09T16:42:36.934Z,102041.05
2023-04-09T16:45:11.138Z,102044.07
2023-04-09T16:47:59.100Z,102049.20
2023-04-09T16:50:27.648Z,102052.95
2023-04-09T16:52:56.773Z,102052.89
2023-04-09T16:55:25.035Z,102058.61
2023-04-09T16:57:56.463Z,102056.98
2023-04-09T17:00:26.235Z,102053.79
2023-04-09T17:02:58.041Z,102059.90
2023-04-09T17:05:26.474Z,102060.13
2023-04-09T17:07:54.622Z,102069.16
2023-04-09T17:10:22.929Z,102074.69
2023-04-09T17:12:51.282Z,102078.71
2023-04-09T17:15:21.666Z,102082.58
2023-04-09T17:17:53.422Z,102088.16
2023-04-09T17:20:26.103Z,102094.85
2023-04-09T17:23:00.993Z,102101.55
2023-04-09T17:25:31.067Z,102100.23
2023-04-09T17:28:01.800Z,102104.15
2023-04-09T17:30:35.720Z,102107.33
2023-04-09T17:33:23.621Z,102108.57
2023-04-09T17:36:02.934Z,102110.20
2023-04-09T17:38:36.300Z,102113.55
2023-04-09T17:41:07.391Z,102117.81
2023-04-09T17:43:40.877Z,102117.17
2023-04-09T17:46:11.920Z,102123.31
2023-04-09T17:48:46.740Z,102126.16
2023-04-09T17:51:18.794Z,102122.98
2023-04-09T17:53:47.807Z,102126.27
2023-04-09T17:56:16.849Z,102124.67
2023-04-09T17:58:45.301Z,102123.95
2023-04-09T18:01:13.766Z,102121.28
2023-04-09T18:03:42.858Z,102123.87
2023-04-09T18:06:24.732Z,102125.59
2023-04-09T18:08:53.659Z,102122.61
2023-04-09T18:11:23.880Z,102125.24
2023-04-09T18:13:53.132Z,102127.05
2023-04-09T18:16:23.419Z,102124.16
2023-04-09T18:18:52.362Z,102127.07
2023-04-09T18:21:24.928Z,102125.43
2023-04-09T18:23:53.708Z,102123.11
2023-04-09T18:26:29.042Z,102124.42
2023-04-09T18:29:02.234Z,102124.51
2023-04-09T18:31:35.702Z,102124.42
2023-04-09T18:34:04.510Z,102119.98
2023-04-09T18:36:35.691Z,102122.67
2023-04-09T18:39:11.249Z,102123.06
2023-04-09T18:41:39.566Z,102122.73
2023-04-09T18:44:09.549Z,102126.95
2023-04-09T18:46:38.297Z,102126.45
2023-04-09T18:49:07.611Z,102123.11
2023-04-09T18:51:36.809Z,102120.80
2023-04-09T18:54:07.962Z,102119.36
2023-04-09T18:56:36.656Z,102120.04
2023-04-09T18:59:04.887Z,102115.68
2023-04-09T19:01:33.984Z,102113.95
2023-04-09T19:04:02.501Z,102110.79
2023-04-09T19:06:33.237Z,102109.39
2023-04-09T19:09:01.382Z,102106.77
2023-04-09T19:11:32.903Z,102107.79
2023-04-09T19:14:02.335Z,102104.46
2023-04-09T19:16:30.857Z,102104.94
2023-04-09T19:19:06.063Z,102103.67
2023-04-09T19:21:36.053Z,102099.85
2023-04-09T19:24:06.014Z,102098.13
2023-04-09T19:26:35.067Z,102096.14
2023-04-09T19:29:05.431Z,102094.31
2023-04-09T19:31:38.282Z,102098.14
2023-04-09T19:34:06.598Z,102101.08
2023-04-09T19:36:34.746Z,102103.14
2023-04-09T19:39:03.486Z,102103.46
2023-04-09T19:41:31.740Z,102102.77
2023-04-09T19:44:01.469Z,102103.70
2023-04-09T19:46:30.465Z,102095.83
2023-04-09T19:48:58.745Z,102097.47
2023-04-09T19:51:31.861Z,102098.75
2023-04-09T19:54:00.066Z,102095.83
2023-04-09T19:56:30.167Z,102096.36
2023-04-09T19:58:58.427Z,102094.11
2023-04-09T20:01:26.949Z,102096.02
2023-04-09T20:03:55.184Z,102093.91
2023-04-09T20:06:24.122Z,102095.79
2023-04-09T20:08:53.365Z,102093.67
2023-04-09T20:11:22.931Z,102089.46
2023-04-09T20:13:52.118Z,102091.54
2023-04-09T20:16:24.416Z,102092.23
2023-04-09T20:18:52.674Z,102092.40
2023-04-09T20:21:21.198Z,102092.56
2023-04-09T20:23:49.503Z,102087.68
2023-04-09T20:26:17.957Z,102086.80
2023-04-09T20:28:47.264Z,102091.36
2023-04-09T20:31:15.339Z,102088.55
2023-04-09T20:33:43.457Z,102087.73
2023-04-09T20:36:18.559Z,102090.38
2023-04-09T20:38:46.700Z,102086.63
2023-04-09T20:41:14.755Z,102086.00
2023-04-09T20:43:42.769Z,102084.52
2023-04-09T20:46:15.622Z,102083.88
2023-04-09T20:48:43.828Z,102079.60
2023-04-09T20:51:11.915Z,102081.26
2023-04-09T20:53:40.591Z,102080.08
2023-04-09T20:56:09.434Z,102083.44
2023-04-09T20:58:41.953Z,102083.48
2023-04-09T21:01:11.110Z,102084.90
2023-04-09T21:03:40.166Z,102081.97
2023-04-09T21:06:09.520Z,102087.39
2023-04-09T21:08:42.842Z,102081.45
2023-04-09T21:11:11.543Z,102082.16
2023-04-09T21:13:53.202Z,102077.67
2023-04-09T21:16:24.949Z,102078.04
2023-04-09T21:18:53.144Z,102082.56
2023-04-09T21:21:30.809Z,102080.66
2023-04-09T21:24:01.100Z,102080.67
2023-04-09T21:26:35.980Z,102081.38
2023-04-09T21:29:17.471Z,102079.14
2023-04-09T21:31:45.875Z,102076.89
2023-04-09T21:34:13.938Z,102072.56
2023-04-09T21:36:45.382Z,102070.31
2023-04-09T21:39:13.641Z,102069.83
2023-04-09T21:41:42.249Z,102068.98
2023-04-09T21:44:10.449Z,102070.40
2023-04-09T21:46:40.814Z,102067.33
2023-04-09T21:49:09.503Z,102070.14
2023-04-09T21:51:38.302Z,102070.59
2023-04-09T21:54:09.624Z,102068.96
2023-04-09T21:56:39.535Z,102072.75
2023-04-09T21:59:09.962Z,102071.25
2023-04-09T22:01:38.553Z,102070.23
2023-04-09T22:04:06.763Z,102070.23
2023-04-09T22:06:40.280Z,102068.30
2023-04-09T22:09:08.711Z,102067.46
2023-04-09T22:11:41.239Z,102064.50
2023-04-09T22:14:12.192Z,102064.15
2023-04-09T22:16:40.844Z,102067.80
2023-04-09T22:19:09.357Z,102067.29
2023-04-09T22:21:41.979Z,102062.39
2023-04-09T22:24:10.909Z,102060.27
2023-04-09T22:26:40.999Z,102060.78
2023-04-09T22:29:10.509Z,102061.98
2023-04-09T22:31:38.972Z,102058.98
2023-04-09T22:34:20.217Z,102057.73
2023-04-09T22:36:49.838Z,102055.45
2023-04-09T22:39:17.989Z,102050.21
2023-04-09T22:41:46.078Z,102048.47
2023-04-09T22:44:14.275Z,102046.19
2023-04-09T22:46:43.844Z,102046.55
2023-04-09T22:49:12.912Z,102046.73
2023-04-09T22:51:41.911Z,102043.84
2023-04-09T22:54:10.578Z,102041.64
2023-04-09T22:56:39.802Z,102041.36
2023-04-09T22:59:08.180Z,102039.19
2023-04-09T23:01:37.340Z,102038.71
2023-04-09T23:04:06.037Z,102039.86
2023-04-09T23:06:34.839Z,102041.23
2023-04-09T23:09:03.055Z,102037.57
2023-04-09T23:11:31.334Z,102040.55
2023-04-09T23:14:02.183Z,102038.68
2023-04-09T23:16:31.127Z,102037.16
2023-04-09T23:19:01.281Z,102034.02
2023-04-09T23:21:29.741Z,102031.77
2023-04-09T23:23:57.859Z,102028.17
2023-04-09T23:26:26.140Z,102025.77
2023-04-09T23:28:54.846Z,102024.05
2023-04-09T23:31:26.016Z,102024.30
2023-04-09T23:33:55.750Z,102018.55
2023-04-09T23:36:24.522Z,102022.02
2023-04-09T23:38:57.322Z,102021.67
2023-04-09T23:41:26.786Z,102024.80
2023-04-09T23:43:55.151Z,102023.11
2023-04-09T23:46:24.369Z,102020.91
2023-04-09T23:48:52.545Z,102016.63
2023-04-09T23:51:20.864Z,102016.82
2023-04-09T23:53:49.591Z,102020.09
2023-04-09T23:56:17.618Z,102016.80
2023-04-09T23:58:47.518Z,102014.70
